createdAt,value
2018-06-29T00:04:33.175Z,20.19
2018-06-29T00:09:35.310Z,20.15
2018-06-29T00:14:37.473Z,20.05
2018-06-29T00:19:39.635Z,20.10
2018-06-29T00:24:41.795Z,19.67
2018-06-29T00:29:43.934Z,19.53
2018-06-29T00:34:46.080Z,19.62
2018-06-29T00:39:48.219Z,19.74
2018-06-29T00:44:50.400Z,19.60
2018-06-29T00:49:52.547Z,19.63
2018-06-29T00:54:54.659Z,19.70
2018-06-29T00:59:56.792Z,19.64
2018-06-29T01:04:58.920Z,19.62
2018-06-29T01:10:01.087Z,19.54
2018-06-29T01:15:03.552Z,19.46
2018-06-29T01:20:05.754Z,19.42
2018-06-29T01:25:08.063Z,19.36
2018-06-29T01:30:10.187Z,19.27
2018-06-29T01:35:12.383Z,19.18
2018-06-29T01:40:14.545Z,19.12
2018-06-29T01:45:16.695Z,19.12
2018-06-29T01:50:18.835Z,19.16
2018-06-29T01:55:20.975Z,19.10
2018-06-29T02:00:23.115Z,19.12
2018-06-29T02:05:25.277Z,19.04
2018-06-29T02:10:27.405Z,18.65
2018-06-29T02:15:29.531Z,18.71
2018-06-29T02:20:31.657Z,18.65
2018-06-29T02:25:33.770Z,18.40
2018-06-29T02:30:35.986Z,18.35
2018-06-29T02:35:38.035Z,18.47
2018-06-29T02:40:40.164Z,18.35
2018-06-29T02:45:42.540Z,18.39
2018-06-29T02:50:44.659Z,18.45
2018-06-29T02:55:46.778Z,18.43
2018-06-29T03:00:48.952Z,18.33
2018-06-29T03:05:51.113Z,18.29
2018-06-29T03:10:53.287Z,18.38
2018-06-29T03:15:55.425Z,18.30
2018-06-29T03:20:57.590Z,18.17
2018-06-29T03:25:59.748Z,18.19
2018-06-29T03:31:01.834Z,18.18
2018-06-29T03:36:04.002Z,17.98
2018-06-29T03:41:06.401Z,17.93
2018-06-29T03:46:08.551Z,17.94
2018-06-29T03:51:10.807Z,17.81
2018-06-29T03:56:12.932Z,17.89
2018-06-29T04:01:15.100Z,17.94
2018-06-29T04:06:17.239Z,18.01
2018-06-29T04:11:19.385Z,18.02
2018-06-29T04:16:21.503Z,18.06
2018-06-29T04:21:23.672Z,18.06
2018-06-29T04:26:25.896Z,18.18
2018-06-29T04:31:28.253Z,18.38
2018-06-29T04:36:30.403Z,18.43
2018-06-29T04:41:32.479Z,18.44
2018-06-29T04:46:34.675Z,18.43
2018-06-29T04:51:36.807Z,18.41
2018-06-29T04:56:38.922Z,18.38
2018-06-29T05:01:41.072Z,18.53
2018-06-29T05:06:43.226Z,18.51
2018-06-29T05:11:45.413Z,18.72
2018-06-29T05:16:47.572Z,19.04
2018-06-29T05:21:49.712Z,19.21
2018-06-29T05:26:52.020Z,19.38
2018-06-29T05:31:54.145Z,19.39
2018-06-29T05:36:56.279Z,19.38
2018-06-29T05:41:58.415Z,19.34
2018-06-29T05:47:00.681Z,19.42
2018-06-29T05:52:02.770Z,19.45
2018-06-29T05:57:05.070Z,19.53
2018-06-29T06:02:07.824Z,19.61
2018-06-29T06:07:09.852Z,19.46
2018-06-29T06:12:12.019Z,19.53
2018-06-29T06:17:14.318Z,19.64
2018-06-29T06:22:16.406Z,19.75
2018-06-29T06:27:18.553Z,19.99
2018-06-29T06:32:20.752Z,20.05
2018-06-29T06:37:22.883Z,20.34
2018-06-29T06:42:25.012Z,20.49
2018-06-29T06:47:27.177Z,20.49
2018-06-29T06:52:29.315Z,20.70
2018-06-29T06:57:31.446Z,20.80
2018-06-29T07:02:33.572Z,20.87
2018-06-29T07:07:35.827Z,20.79
2018-06-29T07:12:38.051Z,20.70
2018-06-29T07:17:40.187Z,20.79
2018-06-29T07:22:42.349Z,20.73
2018-06-29T07:27:44.478Z,20.93
2018-06-29T07:32:46.617Z,20.90
2018-06-29T07:37:48.747Z,20.95
2018-06-29T07:42:50.876Z,21.20
2018-06-29T07:47:53.044Z,21.34
2018-06-29T07:52:55.207Z,21.49
2018-06-29T07:57:57.338Z,21.59
2018-06-29T08:02:59.465Z,21.68
2018-06-29T08:08:01.594Z,21.71
2018-06-29T08:13:03.748Z,21.70
2018-06-29T08:18:05.942Z,21.71
2018-06-29T08:23:08.084Z,21.92
2018-06-29T08:28:10.253Z,22.07
2018-06-29T08:33:12.420Z,22.18
2018-06-29T08:38:14.553Z,22.38
2018-06-29T08:43:16.722Z,22.57
2018-06-29T08:48:18.891Z,22.82
2018-06-29T08:53:21.003Z,22.85
2018-06-29T08:58:23.147Z,22.94
2018-06-29T09:03:25.270Z,23.16
2018-06-29T09:08:27.391Z,23.21
2018-06-29T09:13:29.585Z,23.15
2018-06-29T09:18:31.729Z,23.20
2018-06-29T09:23:34.071Z,23.34
2018-06-29T09:28:36.230Z,23.54
2018-06-29T09:33:38.407Z,23.57
2018-06-29T09:38:40.561Z,23.56
2018-06-29T09:43:42.771Z,23.68
2018-06-29T09:48:44.935Z,23.54
2018-06-29T09:53:47.049Z,23.73
2018-06-29T09:58:49.200Z,23.53
2018-06-29T10:03:51.522Z,23.68
2018-06-29T10:08:53.696Z,23.91
2018-06-29T10:13:55.842Z,24.07
2018-06-29T10:18:58.022Z,24.09
2018-06-29T10:24:00.224Z,24.23
2018-06-29T10:29:02.361Z,24.43
2018-06-29T10:34:04.567Z,24.50
2018-06-29T10:39:10.101Z,24.66
2018-06-29T10:44:12.288Z,24.94
2018-06-29T10:49:14.483Z,24.81
2018-06-29T10:54:16.631Z,24.82
2018-06-29T10:59:18.842Z,25.24
2018-06-29T11:04:21.003Z,25.54
2018-06-29T11:09:23.161Z,25.79
2018-06-29T11:14:25.347Z,25.88
2018-06-29T11:19:27.507Z,25.84
2018-06-29T11:24:29.627Z,26.00
2018-06-29T11:29:31.803Z,26.20
2018-06-29T11:34:33.960Z,26.34
2018-06-29T11:39:36.112Z,26.31
2018-06-29T11:44:38.250Z,26.73
2018-06-29T11:49:40.436Z,27.06
2018-06-29T11:54:42.650Z,27.18
2018-06-29T11:59:44.785Z,27.05
2018-06-29T12:04:47.224Z,27.06
2018-06-29T12:09:49.373Z,27.14
2018-06-29T12:14:51.697Z,27.18
2018-06-29T12:19:53.862Z,27.05
2018-06-29T12:24:56.020Z,27.38
2018-06-29T12:29:58.170Z,27.28
2018-06-29T12:35:00.319Z,27.21
2018-06-29T12:40:02.491Z,27.88
2018-06-29T12:45:04.685Z,28.28
2018-06-29T12:50:06.904Z,28.47
2018-06-29T12:55:09.251Z,28.92
2018-06-29T13:00:11.412Z,28.77
2018-06-29T13:05:13.620Z,28.45
2018-06-29T13:10:15.732Z,28.24
2018-06-29T13:15:17.862Z,28.18
2018-06-29T13:20:20.145Z,28.45
2018-06-29T13:25:22.439Z,28.63
2018-06-29T13:30:24.750Z,28.34
2018-06-29T13:35:27.075Z,28.55
2018-06-29T13:40:29.417Z,29.05
2018-06-29T13:45:32.022Z,29.35
2018-06-29T13:50:34.373Z,29.21
2018-06-29T13:55:36.689Z,29.63
2018-06-29T14:00:38.999Z,29.54
2018-06-29T14:05:41.293Z,29.62
2018-06-29T14:10:43.682Z,29.69
2018-06-29T14:15:45.963Z,29.23
2018-06-29T14:20:48.305Z,28.81
2018-06-29T14:25:50.609Z,29.00
2018-06-29T14:30:52.939Z,28.69
2018-06-29T14:36:01.249Z,29.15
2018-06-29T14:41:09.602Z,29.42
2018-06-29T14:46:18.155Z,29.09
2018-06-29T14:51:26.548Z,29.15
2018-06-29T14:56:34.884Z,29.34
2018-06-29T15:01:43.106Z,29.02
2018-06-29T15:06:51.428Z,29.42
2018-06-29T15:11:59.722Z,29.50
2018-06-29T15:17:07.986Z,29.05
2018-06-29T15:22:16.544Z,28.80
2018-06-29T15:27:24.867Z,28.69
2018-06-29T15:32:33.459Z,28.69
2018-06-29T15:37:41.822Z,28.32
2018-06-29T15:42:50.112Z,28.98
2018-06-29T15:47:58.516Z,28.49
2018-06-29T15:53:07.303Z,28.41
2018-06-29T15:58:15.655Z,28.64
2018-06-29T16:03:23.979Z,28.68
2018-06-29T16:08:32.452Z,28.39
2018-06-29T16:13:40.870Z,28.54
2018-06-29T16:18:49.322Z,28.97
2018-06-29T16:23:57.627Z,29.08
2018-06-29T16:29:06.001Z,29.02
2018-06-29T16:34:08.338Z,28.79
2018-06-29T16:39:16.782Z,28.37
2018-06-29T16:44:19.095Z,28.27
2018-06-29T16:49:27.437Z,28.37
2018-06-29T16:54:36.009Z,28.30
2018-06-29T16:59:38.532Z,28.41
2018-06-29T17:04:40.952Z,27.94
2018-06-29T17:09:49.443Z,27.93
2018-06-29T17:14:57.719Z,27.99
2018-06-29T17:20:00.069Z,27.38
2018-06-29T17:25:02.481Z,27.39
2018-06-29T17:30:05.222Z,27.30
2018-06-29T17:35:07.545Z,27.22
2018-06-29T17:40:09.880Z,27.14
2018-06-29T17:45:12.180Z,27.52
2018-06-29T17:50:14.540Z,27.64
2018-06-29T17:55:16.945Z,27.71
2018-06-29T18:00:20.945Z,27.34
2018-06-29T18:05:23.408Z,26.96
2018-06-29T18:10:25.702Z,26.85
2018-06-29T18:15:27.995Z,26.26
2018-06-29T18:20:30.310Z,25.68
2018-06-29T18:25:32.624Z,25.44
2018-06-29T18:30:34.954Z,25.25
2018-06-29T18:35:37.293Z,24.81
2018-06-29T18:40:39.604Z,24.43
2018-06-29T18:45:41.957Z,23.90
2018-06-29T18:50:44.302Z,23.47
2018-06-29T18:55:46.677Z,23.41
2018-06-29T19:00:49.032Z,23.16
2018-06-29T19:05:51.548Z,23.05
2018-06-29T19:10:53.921Z,22.84
2018-06-29T19:15:56.299Z,22.72
2018-06-29T19:20:58.778Z,22.80
2018-06-29T19:26:01.135Z,22.68
2018-06-29T19:31:03.463Z,22.62
2018-06-29T19:36:05.829Z,22.52
2018-06-29T19:41:08.403Z,22.36
2018-06-29T19:46:10.721Z,22.23
2018-06-29T19:51:13.075Z,22.23
2018-06-29T19:56:15.426Z,22.23
2018-06-29T20:01:17.768Z,22.08
2018-06-29T20:06:20.109Z,21.90
2018-06-29T20:11:22.486Z,21.74
2018-06-29T20:16:24.836Z,21.67
2018-06-29T20:21:27.222Z,21.61
2018-06-29T20:26:29.635Z,21.58
2018-06-29T20:31:32.069Z,21.66
2018-06-29T20:36:34.794Z,21.53
2018-06-29T20:41:37.484Z,22.05
2018-06-29T20:46:39.880Z,22.24
2018-06-29T20:51:42.244Z,22.05
2018-06-29T20:56:44.650Z,22.16
2018-06-29T21:01:47.003Z,21.81
2018-06-29T21:06:49.330Z,21.23
2018-06-29T21:11:51.758Z,21.06
2018-06-29T21:16:54.325Z,21.00
2018-06-29T21:21:57.657Z,21.12
2018-06-29T21:27:00.012Z,21.00
2018-06-29T21:32:02.392Z,20.86
2018-06-29T21:37:04.777Z,20.88
2018-06-29T21:42:07.320Z,20.96
2018-06-29T21:47:09.696Z,21.04
2018-06-29T21:52:11.957Z,20.86
2018-06-29T21:57:14.280Z,20.69
2018-06-29T22:02:16.605Z,20.73
2018-06-29T22:07:18.964Z,20.79
2018-06-29T22:12:21.287Z,20.87
2018-06-29T22:17:23.587Z,20.78
2018-06-29T22:22:25.980Z,20.72
2018-06-29T22:27:28.327Z,20.53
2018-06-29T22:32:30.615Z,20.37
2018-06-29T22:37:32.929Z,20.55
2018-06-29T22:42:35.276Z,20.52
2018-06-29T22:47:37.612Z,20.44
2018-06-29T22:52:39.936Z,20.26
2018-06-29T22:57:42.281Z,20.29
2018-06-29T23:02:44.590Z,20.39
2018-06-29T23:07:46.892Z,20.36
2018-06-29T23:12:49.172Z,20.36
2018-06-29T23:17:51.492Z,20.32
2018-06-29T23:22:53.958Z,20.33
2018-06-29T23:27:56.244Z,20.25
2018-06-29T23:32:58.866Z,20.23
2018-06-29T23:38:01.140Z,20.13
2018-06-29T23:43:03.661Z,20.08
2018-06-29T23:48:05.990Z,20.10
2018-06-29T23:53:08.278Z,20.09
2018-06-29T23:58:10.603Z,20.06
